x

8419317 - Wells, Me (welm1) Weather Station

1:54 - Sun 26th Apr 2015 All times are EDT. -4 hours from GMT.

  • Wind
    3mph, 6mph gusts
  • Sea Temp 42°f
  • Luft Temp 40°f
  • Sea Pressure 1004.5mb
  • 8419317 - Wells, Me
  • 8419317 - Wells, Me

More Historic Weather Station data

Upgrade to MSW Pro to gain access to the past 30 days of data for over 8000 Wavebouys and Weather Stations around the globe.

Join Pro

Comparision Forecast

View Surf forecast
   
So 04/26 1:54 3 6 mph 1004.5mb 42f 40f
1:48 2 6 mph 1004.5mb 42f 40f
1:42 2 5 mph 1004.6mb 42f 40f
1:36 2 5 mph 1004.6mb 42f 40f
1:30 3 6 mph 1004.7mb 42f 40f
1:24 3 6 mph 1004.8mb 42f 40f
1:06 1 3 mph 1005mb 42f 40f
1:00 2 3 mph 1005mb 42f 40f
12:54 1 5 mph 1005.1mb 42f 40f
12:48 2 5 mph 1005mb 42f 41f
12:42 3 5 mph 1005.1mb 42f 41f
12:36 3 5 mph 1005.1mb 42f 40f
12:30 2 5 mph 1005.1mb 42f 40f
12:24 2 5 mph 1005.2mb 42f 40f
12:18 1 3 mph 1005.2mb 42f 40f
12:12  -  2 mph 1005.3mb 42f 39f
Sa 04/25 11:54 1 2 mph 1005.4mb 41f 39f
11:48  -  1 mph 1005.4mb 41f 39f
11:42  -  1 mph 1005.5mb 41f 39f
11:36  -  1 mph 1005.5mb 41f 38f
11:30  -  1 mph 1005.5mb 41f 38f
11:24  -  1 mph 1005.5mb 41f 38f
11:18  -  1 mph 1005.5mb 41f 38f
11:12 1 2 mph 1005.5mb 41f 38f
11:00 1 2 mph 1005.5mb 42f 38f
10:54  -  1 mph 1005.5mb 42f 38f
10:48  -  2 mph 1005.6mb 42f 39f
10:42  -  1 mph 1005.6mb 42f 39f
10:36  -  2 mph 1005.6mb 42f 39f
10:30 2 3 mph 1005.6mb 42f 40f
10:24 1 2 mph 1005.6mb 41f 40f
10:18 2
mph
1005.6mb 41f 40f
10:12 2
mph
1005.7mb 41f 40f
10:06 2
mph
1005.7mb 41f 41f
10:00 2 3 mph 1005.8mb 41f 41f
9:48 2 5 mph 1005.7mb 41f 42f
9:42 3 6 mph 1005.7mb 41f 42f
9:36 5 6 mph 1005.7mb 41f 42f
9:30 5 6 mph 1005.8mb 41f 43f
9:24 5 7 mph 1005.7mb 41f 43f
9:18 5 7 mph 1005.8mb 41f 43f
9:12 6 7 mph 1005.8mb 41f 43f
9:06 6
mph
1005.8mb 41f 43f
9:00 5 7 mph 1005.8mb 41f 44f
8:54 6 7 mph 1005.9mb 41f 44f
8:48 7 8 mph 1005.9mb 41f 44f
8:42 8 9 mph 1005.9mb 41f 44f
8:36 7 13 mph 1005.8mb 41f 45f
8:30 10 15 mph 1005.7mb 41f 45f
8:24 8 10 mph 1005.8mb 41f 45f
8:18 8 13 mph 1005.7mb 41f 45f
8:12 9 13 mph 1005.6mb 41f 46f
8:06 10 14 mph 1005.6mb 41f 46f
8:00 10 18 mph 1005.4mb 41f 46f
7:54 13 16 mph 1005.3mb 41f 46f
7:48 11 16 mph 1005.4mb 41f 46f
7:42 10 17 mph 1005.3mb 41f 46f
7:36 9 14 mph 1005.1mb 41f 47f
7:30 10 15 mph 1005.2mb 41f 47f
7:24 11 15 mph 1005.1mb 41f 47f
7:18 11 16 mph 1005mb 41f 47f
7:12 11 15 mph 1005mb 41f 48f
7:06 13 20 mph 1005mb 41f 48f
7:00 14 18 mph 1004.8mb 41f 48f
6:54 11 17 mph 1004.8mb 41f 49f
6:48 13 18 mph 1004.7mb 41f 49f
6:42 13 20 mph 1004.6mb 41f 49f
6:36 14 16 mph 1004.5mb 41f 49f
6:30 2 7 mph 1004.5mb 41f 48f
6:24 3 5 mph 1004.5mb 41f 48f
6:18 3 6 mph 1004.5mb 41f 47f
6:12 3 7 mph 1004.4mb 41f 46f
6:06 7 10 mph 1004.5mb 41f 45f
6:00 8 9 mph 1004.4mb 41f 45f
5:54 6 9 mph 1004.4mb 41f 47f
5:48 7 9 mph 1004.3mb 41f 46f
5:42 9 13 mph 1004.3mb 41f 45f
5:36 10 14 mph 1004.4mb 41f 45f
5:30 7 9 mph 1004.2mb 41f 46f
5:24 7 9 mph 1004.2mb 41f 47f
5:18 6 11 mph 1004.1mb 41f 47f
5:12 8 11 mph 1004.1mb 41f 47f
5:06 6 11 mph 1004.1mb 40f 48f
5:00 10 15 mph 1004mb 40f 50f
4:54 11 18 mph 1003.9mb 40f 51f
4:48 14 18 mph 1003.8mb 40f 50f
4:42 15 20 mph 1003.8mb 40f 50f
4:36 16 21 mph 1004mb 40f 50f
4:30 18 21 mph 1003.9mb 40f 49f
4:24 6 15 mph 1004mb 40f 51f
4:18 13 16 mph 1004mb 40f 50f
4:12 11 22 mph 1004mb 40f 51f
4:06 8 16 mph 1003.9mb 40f 51f
4:00 11 20 mph 1004mb 40f 50f
3:54 8 18 mph 1004mb 40f 50f
3:48 14 20 mph 1003.9mb 40f 51f
3:42 16 20 mph 1003.8mb 40f 51f
3:36 13 20 mph 1003.8mb 40f 51f
3:30 14 17 mph 1003.7mb 40f 51f
3:24 8 20 mph 1003.8mb 40f 51f
3:18 16 21 mph 1003.7mb 40f 50f
3:12 11 20 mph 1003.7mb 40f 51f
3:06 16 21 mph 1003.7mb 40f 51f
3:00 7 17 mph 1003.7mb 40f 51f
2:54 11 18 mph 1003.7mb 40f 50f
2:48 9 20 mph 1003.6mb 40f 51f
2:42 14 18 mph 1003.7mb 40f 50f
2:36 15 21 mph 1003.6mb 40f 51f
2:30 13 15 mph 1003.6mb 40f 51f
2:24 11 21 mph 1003.6mb 39f 51f
2:18 10 16 mph 1003.7mb 39f 52f
2:12 14 20 mph 1003.7mb 39f 51f
2:06 17 22 mph 1003.7mb 39f 51f
2:00 11 15 mph 1003.8mb 38f 50f
1:54 9 15 mph 1003.9mb 38f 50f
1:36 8 15 mph 1004mb 38f 50f
1:30 14 22 mph 1003.9mb 38f 49f
1:24 10 16 mph 1004mb 38f 50f
1:18 8 14 mph 1004.1mb - -
1:12 8 16 mph 1004.1mb 38f 50f
1:06 14 16 mph 1004.1mb 38f 49f
1:00 10 20 mph 1004mb 38f 49f
12:54 14 18 mph 1004mb 38f 49f
12:48 13 20 mph 1004.2mb 38f 48f
12:42 13 22 mph 1004mb 38f 49f
12:30 11 18 mph 1004.2mb 38f 48f
12:24 10 16 mph 1004.2mb 38f 49f
12:18 9 17 mph 1004.3mb 38f 47f
12:12 15 20 mph 1004.4mb 38f 46f
12:06 10 16 mph 1004.5mb 38f 46f
12:00 10 18 mph 1004.6mb 38f 46f
11:54 13 18 mph 1004.6mb 38f 46f
11:48 3 11 mph 1004.7mb 38f 46f
11:42 8 16 mph 1004.9mb 38f 45f
11:36 13 20 mph 1005mb 38f 44f
11:30 9 17 mph 1005mb 38f 44f
11:24 7 13 mph 1005mb 38f 45f
11:06 11 18 mph 1005.3mb 38f 43f
11:00 11 16 mph 1005.4mb 38f 44f
10:54 10 17 mph 1005.5mb 38f 43f
10:48 13 17 mph 1005.5mb 38f 43f
10:42 13 18 mph 1005.5mb 38f 42f
10:24 13 17 mph 1005.6mb 38f 42f
10:06 13 21 mph 1005.7mb 38f 41f
10:00 10 15 mph 1005.7mb 38f 42f
9:54 13 22 mph 1005.6mb 38f 41f
9:48 14 20 mph 1005.6mb 38f 41f
9:42 14 17 mph 1005.6mb 38f 40f
9:36 13 18 mph 1005.7mb 38f 40f
9:30 10 14 mph 1005.6mb 38f 40f
9:24 8 16 mph 1005.7mb 38f 40f
9:06 10 14 mph 1005.6mb 38f 40f
9:00 13 18 mph 1005.5mb 38f -
8:54 10 16 mph 1005.5mb 38f 40f
8:48 8 15 mph 1005.6mb 38f 39f
8:42 13 16 mph 1005.6mb 38f 39f
8:36 10 18 mph 1005.6mb 38f 39f
8:30 10 14 mph 1005.7mb 38f 39f
8:24 11 15 mph 1005.7mb 38f 39f
8:06 9 17 mph 1005.7mb 38f 39f
8:00 11 16 mph 1005.8mb 38f 39f
7:54 9 16 mph 1005.9mb 38f 39f
7:48 9 15 mph 1006mb 38f 39f
7:42 10 17 mph 1006mb 38f 38f
7:36 11 17 mph 1006mb 38f 38f
7:30 10 14 mph 1006.1mb 38f 38f
7:24 9 15 mph 1006.1mb 38f 38f
7:18 7 11 mph - - -
7:12 9 14 mph 1006.1mb 38f 38f
7:06 6 8 mph 1006.2mb 38f 38f
7:00 6 7 mph 1006.2mb 38f 37f
6:54 3 6 mph 1006.1mb 38f 37f
6:48 3 7 mph 1006mb 38f 37f
6:42 3 7 mph 1005.9mb 38f 37f
6:36 5 8 mph 1005.9mb 38f 36f
6:30 5 8 mph 1005.8mb 38f 36f
6:24 5 8 mph 1005.7mb 38f 36f
6:18 7 9 mph 1005.6mb 38f 36f
6:12 5 7 mph 1005.6mb 38f 35f
6:06 3 7 mph 1005.7mb 38f 35f
6:00 5 6 mph 1005.7mb 38f 35f
5:54 2 6 mph 1005.7mb 38f 35f
5:48 3 6 mph 1005.7mb 38f 35f
5:42 5 6 mph 1005.7mb 38f 35f
5:36 3 6 mph 1005.7mb 38f 35f
5:30 2 3 mph 1005.7mb 38f 35f
5:24 3 5 mph 1005.7mb 38f 35f
5:18 3 6 mph 1005.7mb 38f 35f
5:12 3 6 mph 1005.7mb 38f 35f
5:06 3 6 mph 1005.7mb 38f 35f
5:00 5 7 mph 1005.6mb 38f 35f
4:54 5 7 mph 1005.5mb 38f 35f
4:48 6 9 mph 1005.4mb 38f 35f
4:42 6 7 mph 1005.4mb 38f 35f
4:36 6 8 mph 1005.3mb 38f 35f
4:30 3 6 mph 1005.3mb 38f 35f
4:24 6 8 mph 1005.4mb 38f 35f
4:18 7 9 mph 1005.4mb 38f 36f
4:12 5 8 mph 1005.4mb 38f 36f
4:06 6 10 mph 1005.3mb 38f 36f
4:00 6 8 mph 1005.3mb 38f 36f
3:54 6 9 mph 1005.4mb 38f 36f
3:48 5 8 mph 1005.3mb 38f 36f
3:42 6 10 mph 1005.3mb 38f 36f
3:36 6 10 mph 1005.3mb 38f 36f
3:30 6 8 mph 1005.3mb 38f 36f
3:24 6 9 mph 1005.3mb 38f 36f
3:18 7 8 mph 1005.3mb 38f 36f
3:12 6 9 mph 1005.3mb 38f 36f
3:06 6 9 mph 1005.3mb 38f 36f
3:00 7 13 mph 1005.3mb 38f 37f
2:48 7 11 mph 1005.3mb 38f 37f
2:42 7 13 mph 1005.4mb 38f 37f
2:30 7 11 mph 1005.4mb 38f 37f
2:18 9 14 mph 1005.4mb 38f 37f
2:00 6 11 mph 1005.6mb 38f 37f
1:48 7 14 mph 1005.5mb 38f 37f
1:42 8 13 mph 1005.6mb 38f 38f
1:36 7 14 mph 1005.6mb 38f 38f
1:30 9 13 mph 1005.6mb 38f 38f
1:24 8 14 mph 1005.7mb 38f 38f
1:18 9 13 mph 1005.8mb 39f 38f
1:12 8 17 mph 1005.8mb 39f 38f
1:06 9 16 mph 1005.8mb 40f 38f
1:00 8 15 mph 1005.8mb 40f 38f
12:48 8 13 mph 1005.9mb 41f 38f
12:42 7 18 mph 1006mb 41f 38f
12:36 9 18 mph 1005.9mb 41f 38f
12:30 11 17 mph 1006mb 41f 38f
12:24 13 17 mph 1006mb 42f 38f
12:18 11 18 mph 1006mb 42f 38f
12:12 13 16 mph 1006.1mb 42f 38f
12:00 7 16 mph 1006.3mb 41f 38f
Fr 04/24 11:54 8 20 mph 1006.3mb 41f 38f
11:48 11 20 mph 1006.3mb 41f 38f
11:42 10 18 mph 1006.3mb 40f 38f
11:36 13 16 mph 1006.3mb 40f 38f
11:30 11 16 mph 1006.3mb 40f 38f
11:24 9 16 mph 1006.3mb 40f 38f
11:18 9 23 mph 1006.4mb 40f 38f
11:12 10 20 mph 1006.3mb 40f 38f
11:06 9 14 mph 1006.3mb 40f 38f
11:00 8 14 mph 1006.4mb 40f 38f
10:54 9 13 mph 1006.4mb 40f 38f
10:48 13 18 mph 1006.3mb 40f 38f
10:42 11 16 mph 1006.4mb 40f 38f
10:36 9 15 mph 1006.5mb 40f 38f
10:30 10 17 mph 1006.6mb 40f 38f
10:24 10 17 mph 1006.6mb 40f 38f
10:18 13 17 mph 1006.6mb 40f 38f
10:12 10 18 mph 1006.6mb 40f 38f
10:06 8 17 mph 1006.8mb 40f 38f
10:00 14 20 mph 1006.7mb 40f 39f
9:54 10 18 mph 1006.6mb 40f 38f
9:48 11 17 mph 1006.5mb 40f 39f
9:42 16 20 mph 1006.6mb 40f 39f
9:36 14 20 mph 1006.6mb 40f 39f
9:30 13 21 mph 1006.7mb 40f 39f
9:24 16 25 mph 1006.6mb 40f 39f
9:18 9 20 mph 1006.7mb 40f 39f
9:12 13 21 mph 1006.7mb 39f 39f
9:06 11 21 mph 1006.6mb 39f 39f
9:00 14 18 mph 1006.6mb 39f 39f
8:54 13 20 mph 1006.5mb 39f 39f
8:48 16 22 mph 1006.5mb 39f 40f
8:42 13 22 mph 1006.5mb 39f 40f
8:36 13 22 mph 1006.5mb 39f 40f
8:30 14 20 mph 1006.6mb 39f 40f
8:24 15 21 mph 1006.5mb 40f 40f
8:18 10 22 mph 1006.6mb 39f 40f
8:12 11 16 mph 1006.5mb 39f 40f
8:06 13 17 mph 1006.4mb 39f 40f
8:00 14 22 mph 1006.3mb 39f 40f
7:54 17 25 mph 1006.2mb 39f 40f
7:48 13 22 mph 1006.2mb 39f 40f
7:42 18 24 mph 1006.1mb 40f 40f
7:36 14 23 mph 1006.1mb 40f 40f
7:30 16 23 mph 1006mb 40f 41f
7:24 18 24 mph 1006mb 40f 41f
7:18 16 21 mph 1005.9mb 40f 41f
7:12 17 25 mph 1005.8mb 40f 41f
7:06 17 26 mph 1005.7mb 40f 42f
7:00 16 28 mph 1005.8mb 40f 42f
6:54 11 21 mph 1005.8mb 40f 42f
6:48 15 24 mph 1005.6mb 40f 42f
6:42 13 28 mph 1005.5mb 40f 43f
6:36 13 25 mph 1005.4mb 40f 43f
6:30 16 25 mph 1005.3mb 40f 43f
6:24 16 25 mph 1005.2mb 39f 43f
6:18 14 22 mph 1005.2mb 39f 44f
6:12 14 22 mph 1005.1mb 39f 44f
6:06 16 25 mph 1005mb 39f 44f
6:00 15 26 mph 1004.9mb 39f 44f
5:54 16 25 mph 1004.8mb 39f 45f
5:48 15 24 mph 1004.7mb 39f 46f
5:42 20 25 mph 1004.5mb 39f 45f
5:36 14 28 mph 1004.6mb 39f 46f
5:30 18 24 mph 1004.5mb 39f 46f
5:24 21 26 mph 1004.4mb 39f 45f
5:18 18 25 mph 1004.4mb 39f 45f
5:12 16 23 mph 1004.3mb 39f 45f
5:06 14 24 mph 1004.3mb 39f 46f
5:00 17 23 mph 1004.2mb 39f 46f
4:54 16 22 mph 1004.2mb 39f 46f
4:48 17 25 mph 1004mb 39f 46f
4:42 20 26 mph 1004mb 39f 46f
4:36 16 26 mph 1003.9mb 39f 46f
4:30 16 25 mph 1003.9mb 39f 46f
4:24 18 26 mph 1003.8mb 39f 46f
4:18 16 24 mph 1003.8mb 39f 46f
4:12 17 22 mph 1003.7mb 39f 47f
4:06 16 23 mph 1003.7mb 39f 46f
4:00 17 25 mph 1003.7mb 39f 46f
3:54 17 24 mph 1003.5mb 39f 46f
3:48 16 24 mph 1003.5mb 39f 46f
3:42 20 32 mph 1003.3mb 39f 46f
3:36 15 21 mph 1003.4mb 39f 46f
3:30 14 26 mph 1003.5mb 39f 46f
3:24 15 20 mph 1003.3mb 39f 47f
3:18 15 21 mph 1003.3mb 39f 47f
3:12 14 26 mph 1003.3mb 39f 47f
3:06 14 23 mph 1003.2mb 39f 47f
3:00 14 22 mph 1003.3mb 39f 47f
2:54 15 22 mph 1003.3mb 39f 47f
2:48 11 24 mph 1003.3mb 38f 48f
2:42 16 24 mph 1003.3mb 38f 47f
2:36 17 24 mph 1003.3mb 38f 47f
2:30 13 23 mph 1003.3mb 38f 48f
2:24 18 24 mph 1003.4mb 38f 46f
2:18 14 23 mph 1003.4mb 38f -
2:12 15 23 mph 1003.4mb 38f 46f
2:06 11 16 mph 1003.4mb 38f 48f
2:00 9 24 mph 1003.4mb 38f 47f
1:54 8 20 mph 1003.4mb 38f 49f
1:48 15 23 mph 1003.5mb 38f 47f
1:42 11 23 mph 1003.6mb 38f 47f
1:36 16 23 mph 1003.5mb 39f 46f
1:30 16 24 mph 1003.5mb 39f 46f
1:24 16 22 mph 1003.5mb 38f 47f
1:18 10 18 mph 1003.4mb 38f 48f
1:12 15 24 mph 1003.5mb 38f 47f
1:06 14 20 mph 1003.5mb 38f 47f
1:00 16 24 mph 1003.5mb 38f 46f
12:54 13 21 mph 1003.5mb 38f 46f
12:48 13 20 mph 1003.6mb 38f 46f
12:42 15 23 mph 1003.5mb 38f 46f
12:36 10 24 mph 1003.6mb 38f 46f
12:30 15 25 mph 1003.6mb 38f 45f
12:24 15 22 mph 1003.5mb 38f 46f
12:18 11 25 mph 1003.7mb 38f 46f
12:12 16 22 mph 1003.6mb 38f 45f
12:06 15 22 mph 1003.7mb 38f 45f
12:00 18 28 mph 1003.8mb 38f 44f
11:54 20 24 mph 1003.7mb 38f 44f
11:48 14 23 mph 1003.8mb 38f 45f
11:42 14 22 mph 1003.9mb 38f 46f
11:36 11 22 mph 1003.9mb 38f 46f
11:30 14 25 mph 1003.8mb 39f 45f
11:24 13 21 mph 1003.9mb 39f 45f
11:18 16 24 mph 1004mb 39f 45f
11:12 14 25 mph 1004mb 39f 44f
11:06 15 22 mph 1004mb 39f 44f
11:00 16 26 mph 1004mb 39f 44f
10:54 15 22 mph 1004.1mb 39f 43f
10:48 18 26 mph 1004.1mb - -
10:42 17 25 mph 1004mb 39f 43f
10:36 21 28 mph 1004mb 39f 42f
10:30 15 22 mph 1004mb 39f 42f
10:24 15 24 mph 1004.1mb 39f 42f
10:18 15 26 mph 1004.2mb 39f 42f
10:12 14 23 mph 1004.2mb 39f 43f
10:06 18 28 mph 1004.1mb 39f 42f
10:00 17 24 mph 1004mb 39f 43f
9:54 17 24 mph 1004mb 39f 43f
9:48 18 23 mph 1003.9mb 39f 43f
9:42 11 23 mph 1003.9mb 39f 43f
9:36 17 28 mph 1003.8mb 39f 43f
9:30 18 25 mph 1003.7mb 39f 43f
9:24 14 25 mph 1003.7mb 39f 44f
9:18 14 23 mph 1003.7mb 39f 44f
9:12 20 28 mph 1003.7mb 39f 43f
9:06 14 24 mph 1003.7mb 39f 43f
9:00 17 26 mph 1003.8mb 39f 43f
8:54 14 22 mph 1003.7mb 39f 43f
8:48 14 23 mph 1003.8mb 39f 42f
8:42 14 26 mph 1003.8mb 39f 43f
8:36 11 22 mph 1003.9mb 39f 43f
8:30 16 22 mph 1003.8mb 39f 42f
8:24 8 18 mph 1003.8mb 39f 42f
8:18 10 21 mph 1003.8mb 39f 41f
8:12 13 21 mph 1003.8mb 39f 41f
8:06 9 22 mph 1003.8mb 39f 40f
8:00 14 21 mph 1003.7mb 39f 40f
7:54 14 22 mph 1003.7mb 39f 40f
7:48 11 23 mph 1003.8mb 39f 40f
7:42 15 23 mph 1003.8mb 39f 40f
7:36 11 18 mph 1003.8mb 39f 40f
7:30 13 18 mph 1003.8mb 39f 40f
7:24 9 18 mph 1003.7mb 39f 40f
7:18 10 17 mph 1003.7mb 38f 40f
7:12 10 15 mph 1003.7mb 38f 39f
7:06 8 14 mph 1003.7mb 38f 39f
7:00 9 14 mph 1003.7mb 38f 39f
6:54 9 16 mph 1003.7mb 38f 39f
6:48 8 15 mph 1003.7mb 38f 39f
6:42 11 15 mph 1003.6mb 38f 39f
6:36 11 18 mph 1003.6mb 38f 38f
6:30 10 15 mph 1003.6mb 38f 38f
6:24 8 14 mph 1003.5mb 38f 38f
6:18 9 14 mph 1003.4mb 38f 37f
6:12 9 14 mph 1003.3mb 38f 37f
6:06 9 14 mph 1003.3mb 38f 37f
6:00 11 16 mph 1003.3mb 38f 37f
5:54 11 14 mph 1003.3mb 38f 36f
5:48  -  mph - 38f 36f
5:42 10 16 mph - 38f 36f
5:36 8 14 mph - 38f 37f
5:30 9 14 mph - - -
5:24 9 14 mph - - -
5:18 9 15 mph - 38f 37f
5:12 10 14 mph - 38f 37f
5:06 9 14 mph - 38f 37f
5:00 9 13 mph 1003mb 38f 37f
4:54 9 14 mph 1002.9mb 38f 37f
4:48 10 15 mph 1002.9mb 38f 37f
4:42 8 14 mph 1002.9mb 38f 37f
4:36 8 13 mph 1002.9mb 38f 37f
4:30 8 11 mph 1002.9mb 38f 37f
4:24 9 14 mph 1002.8mb 38f 37f
4:18 8 13 mph 1002.8mb 38f 37f
4:12 9 15 mph 1002.8mb 38f 37f
4:06 9 17 mph 1002.7mb 38f 37f
4:00 10 15 mph 1002.7mb 38f 37f
3:54 10 15 mph 1002.7mb 38f 37f
3:48 11 16 mph 1002.6mb 39f 38f
3:42 10 15 mph 1002.6mb 39f 37f
3:36 9 14 mph 1002.6mb 39f 37f
3:30 8 14 mph 1002.6mb 39f 37f
3:24 8 13 mph 1002.6mb 39f 37f
3:18 7 17 mph 1002.6mb 39f 37f
3:12 9 14 mph 1002.6mb 39f 37f
3:06 11 16 mph 1002.6mb 39f 37f
3:00 9 15 mph 1002.5mb 39f 37f
2:48 9 15 mph 1002.6mb 39f 37f
2:42 10 14 mph 1002.7mb 39f 37f
2:30 10 15 mph 1002.7mb 39f 37f
2:06 8 15 mph 1002.7mb 39f 36f
1:48 7 14 mph 1002.7mb 39f 36f
1:42 8 10 mph 1002.7mb 39f 36f
1:36 7 10 mph 1002.7mb 39f 36f
1:30 9 13 mph 1002.8mb 39f 36f
1:24 7 10 mph 1002.8mb 39f 37f
1:18 8 11 mph 1002.8mb 39f 37f
1:12 9 13 mph 1002.8mb 39f 37f
1:00 6 11 mph - - -
12:54 7 11 mph 1002.9mb 39f 37f
12:48 8 10 mph 1002.9mb 39f 37f
12:42 7 10 mph 1002.9mb 39f 37f
12:36 7 11 mph 1003mb 39f 37f
12:30 6 10 mph 1003mb 39f 38f
12:24 7 10 mph 1002.9mb 40f 38f
12:18 6 11 mph 1002.9mb 40f 38f
12:12 6 9 mph 1002.9mb 40f 38f
Do 04/23 11:54 6 10 mph 1002.9mb 41f 39f
11:48 6 9 mph 1002.9mb 41f 39f
11:42 7 11 mph 1002.9mb 41f 39f
11:30 7 11 mph 1002.8mb 42f -
11:24 7 11 mph 1002.8mb 42f 40f
11:18 7 13 mph 1002.9mb 42f 40f
11:12 7 11 mph 1002.9mb 42f 40f
11:06 7 13 mph 1002.8mb 42f 40f
11:00 8 14 mph 1002.8mb 42f 40f
10:54 8 13 mph 1002.8mb 42f 40f
10:48 7 14 mph 1002.8mb 42f 40f
10:42 7 11 mph 1002.8mb 42f 40f
10:36 7 10 mph 1002.8mb 42f 40f
10:30 7 11 mph 1002.8mb 42f 40f
10:24 6 13 mph 1002.8mb 42f 40f
10:06 7 11 mph 1002.8mb 41f 41f
10:00 8 14 mph 1002.8mb 41f 41f
9:54 9 15 mph 1002.8mb 41f 41f
9:48 7 13 mph 1002.8mb 41f 41f
9:42 7 14 mph 1002.8mb 41f 41f
9:36 9 13 mph 1002.8mb 41f 41f
9:30 7 14 mph 1002.9mb 41f 41f
9:24 7 11 mph 1002.8mb 41f 42f
9:18 10 15 mph 1002.8mb 41f 42f
9:12 7 13 mph 1002.7mb 41f 42f
9:06 7 10 mph 1002.7mb 41f 42f
9:00 7 10 mph 1002.6mb 41f 42f
8:54 7 10 mph 1002.5mb 41f 42f
8:48 8 14 mph 1002.5mb 41f 42f
8:42 9 14 mph 1002.4mb 41f 43f
8:36 9 14 mph 1002.4mb 41f 43f
8:30 8 11 mph 1002.3mb 41f 44f
8:24 6 8 mph 1002.3mb 41f 44f
8:18 8 10 mph 1002.2mb 41f 45f
8:12 6 9 mph 1002.2mb 41f 45f
8:06 6 9 mph 1002.1mb 41f 45f
8:00 6 9 mph 1002mb 41f 45f
7:54 6 10 mph 1001.9mb 41f 45f
7:48 5 9 mph 1001.8mb 41f 45f
7:42 7 10 mph 1001.8mb 41f 45f
7:36 8 11 mph 1001.7mb 41f 45f
7:30 6 11 mph 1001.7mb 41f 45f
7:24 7 9 mph 1001.6mb 41f 45f
7:18 7 10 mph 1001.6mb - -
7:12 6 14 mph 1001.6mb 41f 45f
7:06 5 8 mph 1001.6mb 41f 45f
7:00 9 13 mph 1001.5mb 41f 45f
6:54 8 13 mph 1001.4mb 41f 45f
6:48 10 14 mph 1001.3mb 41f 45f
6:42 7 11 mph 1001.3mb 41f 46f
6:36 10 15 mph 1001.3mb 41f 46f
6:30 14 21 mph 1001.2mb 41f 46f
6:24 10 16 mph 1001.3mb 41f 45f
6:18 15 20 mph 1001.2mb 41f 46f
6:12 13 22 mph 1001.2mb 41f 46f
6:06 13 16 mph 1001.2mb 41f 46f
6:00 11 16 mph 1001.1mb 41f 46f
5:54 13 17 mph 1001mb 41f 46f
5:48 15 24 mph 1000.9mb 40f -
5:42 17 24 mph 1000.8mb 40f 46f
5:36 14 21 mph 1000.7mb 40f 47f
5:30 10 15 mph 1000.6mb 40f 47f
5:24 8 11 mph 1000.6mb 40f 47f
5:18 14 17 mph 1000.5mb 40f 47f
5:12 11 17 mph 1000.4mb 40f 47f
5:06 9 15 mph 1000.4mb 40f 47f
5:00 9 18 mph 1000.4mb 40f 47f
4:54 13 18 mph 1000.3mb 40f 47f
4:48 14 21 mph - - -
4:42 9 17 mph 1000.3mb 40f 48f
4:36 11 16 mph 1000.2mb 40f 48f
4:30 11 20 mph 1000.2mb 40f 48f
4:24 13 18 mph 1000.2mb 40f 48f
4:18 15 21 mph - - -
4:12 14 20 mph 1000.2mb 40f 48f
4:06 14 22 mph 1000.2mb 40f 48f
4:00 10 18 mph 1000.2mb 40f 48f
3:54 9 20 mph 1000.2mb 40f 48f
3:48 13 22 mph - - -
3:42 11 20 mph 1000.1mb 40f 47f
3:36 11 20 mph 1000.1mb 40f 47f
3:30 16 22 mph 1000mb 40f 47f
3:24 13 17 mph 1000mb 40f 48f
3:18 10 17 mph 999.9mb 40f -
3:12 11 16 mph 999.9mb 40f 48f
3:06 9 16 mph 999.9mb 40f 48f
3:00 10 18 mph 999.9mb 40f 48f
2:54 11 18 mph 999.9mb 40f 48f
2:48 10 17 mph 999.9mb 40f 48f
2:42 11 18 mph 999.9mb 40f 48f
2:36 13 22 mph 999.9mb 40f 48f
2:30 13 22 mph 999.9mb 40f 48f
2:24 11 16 mph 999.9mb 40f 48f
2:18 10 20 mph 999.8mb 40f 48f
2:12 13 20 mph 999.9mb 40f 48f
2:06 14 21 mph 999.8mb 40f 47f
2:00 10 17 mph 1000mb 40f 49f
1:54 9 20 mph 1000mb 40f 48f
1:36 11 17 mph 1000mb 40f 47f
1:30 13 20 mph 1000mb 40f 48f
1:24 10 14 mph 1000mb 40f 48f
1:18 9 15 mph - - -
1:12 10 15 mph 1000.1mb 40f 48f
1:06 11 15 mph 1000mb 40f 48f
1:00 2 9 mph 1000mb 40f 48f
12:54 8 15 mph 1000.1mb 40f 46f
12:48 13 21 mph 1000.2mb 40f 46f
12:36 9 16 mph 1000.1mb 40f 47f
12:30 8 15 mph 1000.1mb 40f 47f
12:24 10 14 mph 1000.1mb 41f 47f
12:18 6 9 mph 1000.1mb - -
12:12 6 9 mph 1000.2mb 41f 44f
12:06 9 13 mph 1000.3mb 41f 43f
12:00 10 14 mph 1000.4mb 42f 43f
11:54 10 16 mph 1000.5mb 42f 43f
11:36 10 16 mph 1000.3mb 42f 47f
11:30 9 15 mph 1000.2mb 42f 46f
11:24 10 16 mph 1000.2mb 42f 46f
11:18 10 15 mph 1000.2mb 42f 46f
11:12 9 13 mph 1000.1mb 42f 47f
11:06 7 10 mph 1000mb 42f 47f
11:00 7 16 mph 1000mb 42f 47f
10:54 10 14 mph 999.9mb 42f 47f
10:48 10 17 mph 1000mb 42f 47f
10:36 11 17 mph 1000mb 42f 47f
10:30 9 17 mph 1000.1mb 42f 47f
10:24 11 17 mph 1000mb 42f 47f
10:18 10 16 mph 1000mb 42f 48f
10:12 10 20 mph 1000.1mb 42f 47f
10:06 14 20 mph 1000.1mb 42f 47f
10:00 7 17 mph 1000.1mb 42f 47f
9:54 11 18 mph 1000.1mb 42f 47f
9:48 9 16 mph 1000.1mb 42f 47f
9:42 9 14 mph 1000.1mb 42f 46f
9:36 11 18 mph 1000.2mb 42f 47f
9:30 10 18 mph 1000.2mb 42f 46f
9:24 8 22 mph 1000.1mb 42f 47f
9:18 10 15 mph 1000.1mb 42f 46f
9:12 13 20 mph 1000.1mb 42f 46f
9:06 9 14 mph 1000.2mb 42f 46f
9:00 9 16 mph 1000.2mb 42f 45f
8:54 9 14 mph 1000.2mb 42f 45f
8:48 9 14 mph 1000.1mb 42f 45f
8:42 11 17 mph 1000.2mb 42f 44f
8:36 8 14 mph 1000.4mb 42f 45f
8:30 10 15 mph 1000.5mb 42f 44f
8:24 10 15 mph 1000.5mb 42f 44f
8:18 11 15 mph 1000.4mb 42f 44f
8:12 8 13 mph 1000.4mb 42f 44f
8:06 8 14 mph 1000.3mb 42f 44f
8:00 9 15 mph 1000.3mb 42f 43f
7:54 10 14 mph 1000.3mb 42f 43f
7:48 8 11 mph 1000.3mb 42f 43f
7:42 6 15 mph 1000.3mb 42f 43f
7:36 9 14 mph 1000.2mb 42f 43f
7:30 7 13 mph 1000.2mb 42f 42f
7:24 6 13 mph 1000.2mb 42f 42f
7:18 6 10 mph 1000.1mb 42f 42f
7:12 7 10 mph 1000.1mb 42f 42f
7:06 8 13 mph 1000mb 42f 42f
7:00 7 9 mph 1000.1mb 42f 41f
6:54 6 10 mph 1000.1mb 42f 41f
6:48 5 9 mph 1000mb 42f 41f
6:42 6 10 mph 999.9mb 42f 41f
6:36 6 8 mph 999.8mb 42f 41f
6:30 5 9 mph 999.6mb 42f 41f
6:24 6 8 mph 999.7mb 42f 40f
6:18 5 7 mph 999.8mb 42f 40f
6:12 5 7 mph 999.8mb 42f 39f
6:06 3 6 mph 999.9mb 42f 39f
6:00 6 7 mph 1000mb 42f 39f
5:54 5 8 mph 999.9mb 42f 39f
5:48  -  mph - 42f -
5:42  -  mph - 42f -
5:36  -  mph - 42f -
5:30 13 14 mph 999.8mb 42f 41f
5:24 13 16 mph 999.7mb 42f 40f
5:18 13 15 mph - - -
5:12 11 14 mph - - -
5:06 7 15 mph - - -
5:00 8 14 mph 999mb 42f 40f
4:54 9 16 mph 998.9mb 42f 40f
4:48 9 14 mph 998.6mb 42f 40f
4:42 8 14 mph 998.5mb 42f 40f
4:36 8 15 mph 998.2mb 42f 40f
4:30 10 14 mph 997.8mb 42f 40f
4:24 8 14 mph 997.7mb 42f 40f
4:18 9 15 mph 997.7mb 42f 41f
4:12 8 15 mph 997.7mb 42f 41f
4:06 9 16 mph 997.7mb 42f 41f
4:00 13 21 mph 997.7mb 42f 41f
3:54 11 18 mph 997.6mb 42f 41f
3:48 11 22 mph 997.8mb 42f 41f
3:42 13 21 mph 998mb 42f 41f
3:36 15 21 mph 998.1mb 42f 41f
3:30 13 20 mph 998.2mb 42f 42f
3:24 13 22 mph 998.2mb 42f 42f
3:18 14 24 mph 998.3mb 42f -
3:12 21 30 mph 998.2mb 42f 42f
3:06 14 28 mph 998.1mb 42f 43f
3:00 18 29 mph 997.8mb 42f 43f
2:54 15 20 mph 997.6mb 42f 44f
2:48 13 17 mph 997.2mb 42f 45f
2:36 8 15 mph 996.9mb 42f 45f
2:24 8 11 mph 996.8mb 42f 45f
1:54 6 11 mph 996.8mb 42f 46f
1:48 7 11 mph - - -
1:42 7 11 mph 997.2mb 42f 46f
1:36 9 13 mph 997.2mb 42f 47f
1:30 7 13 mph 997.1mb 42f 47f
1:24 9 15 mph 997mb 42f 49f
1:06 10 15 mph 997mb 42f 50f
1:00 8 10 mph 997.1mb 42f 50f
12:54 10 22 mph 997.2mb 42f 47f
12:48 17 22 mph 997.4mb 42f 47f
12:42 18 22 mph 997.3mb 42f 47f
12:36 18 20 mph 997.4mb 42f 47f
12:30 17 21 mph 997.5mb 42f 47f
12:24 16 20 mph 997.5mb 42f 47f
12:18 16 20 mph 997.6mb 42f 47f
12:12 14 16 mph 997.6mb 42f 47f
12:06 13 14 mph 997.6mb 42f 47f
12:00 13 15 mph 997.7mb 42f 47f
Mi 04/22 11:54 11 14 mph 997.9mb 42f 48f
11:48 9 13 mph 997.9mb 42f 49f
11:42 10 13 mph 998mb 42f 49f
11:36 14 17 mph 998mb 42f 52f
11:30 13 16 mph 998.1mb 43f 52f
11:24 14 16 mph 998.1mb 43f 52f
11:18 14 18 mph 998.2mb 43f 52f
11:12 16 21 mph 998.2mb 44f 52f
11:06 13 16 mph 998.4mb 44f 51f
11:00 8 10 mph 998.4mb 45f 50f
10:54 7 9 mph 998.4mb 45f 49f
10:48 8 10 mph 998.4mb 46f 49f
10:42 9 10 mph 998.2mb 47f 49f
10:36 9 14 mph 998.5mb 47f 47f
10:30 10 14 mph 998.3mb 47f 47f
10:24 13 17 mph 998.4mb 47f 48f
10:18 16 21 mph 999.2mb 47f 47f
10:12 16 22 mph 999.4mb 47f 47f
10:06 17 21 mph 999.5mb 46f 47f
10:00 16 21 mph 999.5mb 46f 47f
9:54 16 18 mph 999.5mb 46f 48f
9:48 15 21 mph 999.6mb 46f 48f
9:42 16 22 mph 999.7mb 45f 48f
9:36 17 22 mph 999.9mb 45f 48f
9:30 20 24 mph 999.9mb 45f 49f
9:24 22 25 mph 999.9mb 45f 49f
9:18 18 22 mph 999.8mb 45f 49f
9:12 18 24 mph 1000mb 45f 49f
9:06 21 23 mph 1000.1mb 45f 49f
9:00 20 22 mph 1000.3mb 45f 49f
8:54 18 22 mph 1000.4mb 45f 49f
8:48 17 20 mph 1000.4mb 45f 48f
8:42 17 22 mph 1000.5mb 45f 48f
8:36 17 20 mph 1000.7mb 45f 48f
8:30 15 21 mph 1000.6mb 44f 48f
8:24 17 23 mph 1000.8mb 44f 48f
8:18 20 24 mph 1000.9mb 44f 48f
8:12 20 28 mph 1001mb 44f 48f
8:06 21 24 mph 1001mb 44f 48f
8:00 20 23 mph 1001mb 44f 48f
7:54 17 22 mph 1001.1mb 44f 48f
7:48 16 21 mph 1001.1mb 44f 48f
7:42 17 22 mph 1001.3mb 44f 49f
7:36 17 21 mph 1001.4mb 44f 49f
7:30 15 18 mph 1001.4mb 44f 48f
7:24 14 17 mph 1001.3mb 44f 48f
7:18 13 17 mph 1001.4mb 43f 48f
7:06 14 18 mph 1001.4mb 43f 48f
7:00 15 17 mph 1001.5mb 43f 47f
6:54 15 20 mph 1001.5mb 43f 48f
6:48 17 21 mph 1001.5mb 44f 48f
6:42 18 21 mph 1001.6mb 45f 48f
6:36 17 20 mph 1001.6mb 45f 48f
6:30 17 21 mph 1001.7mb 46f 48f
6:24 17 20 mph 1001.8mb 46f 48f
6:18 17 21 mph 1001.8mb 45f 48f
6:12 16 22 mph 1001.9mb 45f 48f
6:00 16 20 mph 1001.8mb 45f 48f
5:54 17 21 mph 1001.8mb 44f 48f
5:48 17 22 mph 1001.9mb 44f 48f
5:42 20 24 mph 1001.9mb 45f 49f
5:36 20 23 mph 1001.9mb 44f 49f
5:30 21 24 mph 1001.8mb 44f 49f
5:24 20 23 mph 1001.9mb 44f 49f
5:18 21 24 mph 1001.9mb 44f 49f
5:12 18 22 mph 1001.9mb 44f 49f
5:06 17 21 mph 1002mb 44f 49f
5:00 17 21 mph 1001.9mb 44f 49f
4:54 15 17 mph 1001.8mb 44f 49f
4:48 14 16 mph - - -
4:42 9 11 mph 1001.8mb 43f 48f
4:36 9 13 mph 1002mb 43f 48f
4:30 10 14 mph 1001.9mb 43f 48f
4:24 10 11 mph 1002mb 43f 49f
4:18 9 13 mph 1002.2mb 43f 49f
4:12 10 14 mph 1002.3mb 43f 49f
4:06 9 15 mph 1002.4mb 43f 49f
4:00 5 8 mph 1002.5mb 43f 49f
3:54 6 8 mph 1002.5mb 43f 49f
3:36 9 14 mph 1003mb 43f 49f
3:30 11 15 mph 1003.1mb 42f 49f
3:24 10 14 mph 1003.1mb 42f 49f
3:18 13 16 mph - - -
3:12 8 10 mph 1003.1mb 42f 49f
3:06 11 15 mph 1003.3mb 42f 49f
3:00 14 17 mph 1003.4mb 42f 49f
2:54 10 11 mph 1003.4mb 42f 49f
2:48 7 11 mph 1003.5mb 42f 49f
2:42 7 8 mph 1003.6mb 42f 49f
2:36 6 9 mph 1003.7mb 42f 49f
2:30 8 9 mph 1004mb 42f 49f
2:24 8 9 mph 1004.1mb 42f 48f
2:18 8 13 mph 1004.2mb 42f 48f
2:12 13 15 mph 1004.3mb 42f 49f
2:06 13 16 mph 1004.4mb 42f 49f
2:00 13 15 mph 1004.5mb 42f 49f
1:54 9 11 mph 1004.5mb 42f 48f
1:48 9 13 mph 1004.6mb 42f 48f
1:42 8 11 mph 1004.6mb 42f 48f
1:36 9 13 mph 1004.8mb 42f 48f
1:30 11 14 mph 1004.9mb 42f 48f
1:24 11 14 mph 1005mb 42f 47f
1:18 10 13 mph 1005.1mb 42f 47f
1:12 10 13 mph 1005.1mb 42f 48f
1:06 10 14 mph 1005.1mb 42f 47f
1:00 11 14 mph 1005.3mb 42f 47f
12:54 10 14 mph 1005.3mb 42f 47f
12:48 11 15 mph 1005.3mb 42f 47f
12:42 13 14 mph 1005.5mb 42f 47f
12:36 13 14 mph 1005.6mb 42f 47f
12:30 11 15 mph 1005.6mb 42f 47f
12:24 11 13 mph 1005.7mb 42f 47f
12:18 11 14 mph 1005.7mb 42f 47f
12:12 11 15 mph 1005.9mb 42f 47f
12:06 14 17 mph 1006.1mb 42f 47f
12:00 13 16 mph 1006.2mb 42f 47f
11:54 13 16 mph 1006.3mb 42f 47f
11:48 13 15 mph 1006.3mb 42f 47f
11:42 14 16 mph 1006.4mb 41f 47f
11:36 14 16 mph 1006.5mb 41f 47f
11:30 14 17 mph 1006.6mb 41f 47f
11:24 14 16 mph 1006.5mb 41f 47f
11:18 15 17 mph 1006.6mb 41f 47f
11:12 14 17 mph 1006.6mb 41f 47f
11:06 14 16 mph 1006.7mb 41f 48f
11:00 15 16 mph 1006.8mb 41f 48f
10:54 14 17 mph 1006.9mb 41f 48f
10:48 15 17 mph 1007mb 41f 48f
10:42 11 14 mph 1007.1mb 41f 48f
10:36 11 14 mph 1007.2mb 41f 48f
10:30 10 11 mph 1007.2mb 41f 48f
10:24 9 13 mph 1007.2mb 41f 48f
10:18 10 11 mph 1007.3mb 41f 48f
10:12 9 11 mph 1007.3mb 41f 48f
10:06 9 11 mph 1007.4mb 41f 48f
10:00 10 13 mph 1007.5mb 41f 48f
9:54 9 14 mph 1007.4mb 41f 48f
9:48 11 15 mph 1007.5mb 41f 48f
9:42 13 17 mph 1007.6mb 41f 49f
9:36 15 18 mph 1007.7mb 41f 49f
9:30 15 17 mph 1007.7mb 41f 49f
9:24 14 16 mph 1007.7mb 41f 49f
9:18 11 14 mph 1007.6mb 41f 49f
9:12 11 14 mph 1007.7mb 41f 49f
9:06 10 11 mph 1007.8mb 41f 49f
9:00 8 11 mph 1007.8mb 41f 48f
8:54 9 11 mph 1007.9mb 41f 48f
8:48 8 10 mph 1007.9mb 41f 48f
8:42 6 8 mph 1007.8mb 41f 48f
8:36 2 3 mph 1008mb 41f 48f
8:30 2 5 mph 1008mb 41f 47f
8:24 2 5 mph 1008mb 41f 48f
8:18 2 3 mph 1008mb 41f 49f
8:12 2 3 mph 1008mb 41f 50f
8:06 2 3 mph 1008mb 41f 50f
8:00 2
mph
1008mb 41f 51f
7:54 1
mph
1007.9mb 41f 51f
7:48  -  2 mph 1007.9mb 41f 50f
7:42  -  2 mph 1007.9mb 41f 48f
7:36 1 2 mph 1007.8mb 41f 49f
7:30 1 2 mph 1007.9mb 41f 47f
7:24 1 2 mph 1007.9mb 41f 47f
7:18  -  3 mph 1007.9mb 41f 45f
7:12  -  3 mph 1008mb 41f 44f
7:06 2
mph
1008mb 41f 43f
7:00  -  3 mph 1007.8mb 41f 42f
6:54  -  2 mph 1007.9mb 41f 41f
6:48 1 2 mph 1007.8mb 41f 40f
6:42 1 5 mph 1007.9mb 41f 39f